Time;durP1;ratioP1;P1;durP2;ratioP2;P2;SDS_P1;SDS_P2;PMS_P1;PMS_P2;Temp;Humidity;BMP_temperature;BMP_pressure;BME280_temperature;BME280_humidity;BME280_pressure;Samples;Min_cycle;Max_cycle;Signal;HPM_P1;HPM_P2
2022/04/10 00:00:58;;;;;;;4.53;3.90;;;;;;;;;;5020512;28;20235;-80
2022/04/10 00:03:25;;;;;;;5.20;3.70;;;;;;;;;;5021485;28;20228;-79
2022/04/10 00:05:54;;;;;;;8.03;3.80;;;;;;;;;;5019229;28;20239;-79
2022/04/10 00:08:21;;;;;;;7.47;3.90;;;;;;;;;;5018211;28;20217;-79
2022/04/10 00:10:48;;;;;;;5.30;3.97;;;;;;;;;;5023583;28;20235;-80
2022/04/10 00:13:16;;;;;;;5.97;3.83;;;;;;;;;;5025856;28;20231;-80
2022/04/10 00:15:43;;;;;;;8.10;4.10;;;;;;;;;;5024046;28;20233;-80
2022/04/10 00:18:10;;;;;;;6.53;4.03;;;;;;;;;;5020675;28;20210;-81
2022/04/10 00:20:37;;;;;;;6.03;4.23;;;;;;;;;;5021512;28;20614;-80
2022/04/10 00:23:05;;;;;;;5.30;3.53;;;;;;;;;;5018261;28;20236;-79
2022/04/10 00:25:33;;;;;;;6.90;3.97;;;;;;;;;;5016929;28;20746;-80
2022/04/10 00:28:00;;;;;;;5.97;4.10;;;;;;;;;;5020321;28;20211;-80
2022/04/10 00:30:27;;;;;;;3.93;3.30;;;;;;;;;;5021489;28;20243;-81
2022/04/10 00:32:54;;;;;;;4.67;4.00;;;;;;;;;;5022987;28;20204;-80
2022/04/10 00:35:21;;;;;;;4.00;3.67;;;;;;;;;;5019108;28;20698;-80
2022/04/10 00:37:48;;;;;;;4.20;3.63;;;;;;;;;;5020792;28;20238;-80
2022/04/10 00:40:17;;;;;;;4.40;3.40;;;;;;;;;;5033120;28;20231;-81
2022/04/10 00:42:47;;;;;;;5.93;3.97;;;;;;;;;;5033227;28;20210;-81
2022/04/10 00:45:16;;;;;;;4.33;3.93;;;;;;;;;;5025643;28;20246;-79
2022/04/10 00:47:45;;;;;;;4.47;3.60;;;;;;;;;;5026457;28;20210;-80
2022/04/10 00:50:12;;;;;;;4.50;4.00;;;;;;;;;;5026423;28;20231;-81
2022/04/10 00:52:39;;;;;;;7.20;3.87;;;;;;;;;;5026383;28;20204;-81
2022/04/10 00:55:07;;;;;;;4.90;4.43;;;;;;;;;;5026856;28;20238;-81
2022/04/10 00:57:37;;;;;;;4.93;3.93;;;;;;;;;;5026711;28;20208;-81
2022/04/10 01:00:05;;;;;;;4.33;3.87;;;;;;;;;;5023924;28;20240;-81
2022/04/10 01:02:32;;;;;;;4.03;3.63;;;;;;;;;;5026150;28;20211;-81
2022/04/10 01:04:59;;;;;;;3.83;3.53;;;;;;;;;;5020600;28;20259;-80
2022/04/10 01:07:28;;;;;;;5.10;4.27;;;;;;;;;;5002369;28;20215;-80
2022/04/10 01:09:56;;;;;;;4.80;4.30;;;;;;;;;;5013354;28;20207;-79
2022/04/10 01:12:23;;;;;;;5.17;4.10;;;;;;;;;;5020070;28;20238;-80
2022/04/10 01:14:52;;;;;;;7.07;4.87;;;;;;;;;;5002462;28;20224;-80
2022/04/10 01:17:19;;;;;;;5.43;4.63;;;;;;;;;;5000037;28;20830;-80
2022/04/10 01:19:46;;;;;;;6.47;4.30;;;;;;;;;;4999772;28;20218;-80
2022/04/10 01:22:19;;;;;;;4.67;4.20;;;;;;;;;;5000475;28;20208;-80
2022/04/10 01:24:47;;;;;;;4.87;4.37;;;;;;;;;;4999701;28;20239;-80
2022/04/10 01:27:14;;;;;;;4.50;4.10;;;;;;;;;;4998661;28;20212;-80
2022/04/10 01:29:41;;;;;;;4.53;4.10;;;;;;;;;;4999623;28;20215;-80
2022/04/10 01:32:09;;;;;;;6.70;4.30;;;;;;;;;;5000082;28;20212;-80
2022/04/10 01:34:38;;;;;;;4.63;4.27;;;;;;;;;;5000295;28;20228;-80
2022/04/10 01:37:06;;;;;;;7.40;4.33;;;;;;;;;;4999694;28;20227;-80
2022/04/10 01:39:34;;;;;;;4.60;4.13;;;;;;;;;;4999745;28;20227;-80
2022/04/10 01:42:01;;;;;;;7.63;4.60;;;;;;;;;;4998940;28;20239;-80
2022/04/10 01:44:28;;;;;;;4.27;3.87;;;;;;;;;;5000208;28;20239;-79
2022/04/10 01:46:55;;;;;;;9.73;4.73;;;;;;;;;;4999253;28;20239;-80
2022/04/10 01:49:22;;;;;;;5.23;4.37;;;;;;;;;;4999500;28;20617;-80
2022/04/10 01:51:49;;;;;;;6.07;4.57;;;;;;;;;;5000352;28;20236;-80
2022/04/10 01:54:17;;;;;;;9.93;4.40;;;;;;;;;;5002403;28;20232;-79
2022/04/10 01:56:46;;;;;;;4.60;4.20;;;;;;;;;;5003895;28;20235;-80
2022/04/10 01:59:13;;;;;;;7.77;4.80;;;;;;;;;;5010584;28;20238;-79
2022/04/10 02:01:40;;;;;;;10.87;4.67;;;;;;;;;;5013914;28;20226;-79
2022/04/10 02:04:07;;;;;;;6.80;4.33;;;;;;;;;;5026766;28;20231;-79
2022/04/10 02:06:37;;;;;;;8.27;4.00;;;;;;;;;;5026393;28;20864;-80
2022/04/10 02:09:07;;;;;;;4.63;4.10;;;;;;;;;;5025755;28;20245;-80
2022/04/10 02:11:34;;;;;;;8.93;4.93;;;;;;;;;;5027122;28;20241;-79
2022/04/10 02:14:02;;;;;;;4.40;4.00;;;;;;;;;;5025196;28;20230;-80
2022/04/10 02:16:29;;;;;;;5.67;4.10;;;;;;;;;;5028669;28;20239;-80
2022/04/10 02:18:56;;;;;;;4.87;4.47;;;;;;;;;;5025531;28;20668;-80
2022/04/10 02:21:23;;;;;;;6.33;4.60;;;;;;;;;;5024552;28;20234;-79
2022/04/10 02:23:50;;;;;;;4.90;4.40;;;;;;;;;;5024921;28;20237;-79
2022/04/10 02:26:17;;;;;;;4.70;4.30;;;;;;;;;;5025121;28;20254;-79
2022/04/10 02:28:45;;;;;;;5.10;4.50;;;;;;;;;;5025399;28;20278;-79
2022/04/10 02:31:14;;;;;;;9.00;4.80;;;;;;;;;;5024959;28;20230;-79
2022/04/10 02:33:41;;;;;;;5.67;4.87;;;;;;;;;;5024762;28;20230;-80
2022/04/10 02:36:08;;;;;;;5.33;4.43;;;;;;;;;;5027002;28;20616;-80
2022/04/10 02:38:35;;;;;;;5.33;4.77;;;;;;;;;;5026155;28;20211;-79
2022/04/10 02:41:02;;;;;;;6.30;4.97;;;;;;;;;;5026472;28;20231;-79
2022/04/10 02:43:29;;;;;;;5.30;4.80;;;;;;;;;;5026260;28;20679;-80
2022/04/10 02:45:56;;;;;;;6.53;4.80;;;;;;;;;;5028046;28;20243;-79
2022/04/10 02:48:24;;;;;;;7.07;4.67;;;;;;;;;;5027435;28;20211;-79
2022/04/10 02:50:51;;;;;;;4.53;4.13;;;;;;;;;;5027869;28;20234;-79
2022/04/10 02:53:19;;;;;;;4.70;4.30;;;;;;;;;;5028121;28;20237;-79
2022/04/10 02:55:46;;;;;;;7.43;4.90;;;;;;;;;;5027435;28;20235;-79
2022/04/10 02:58:13;;;;;;;5.47;4.90;;;;;;;;;;5027408;28;20207;-79
2022/04/10 03:00:40;;;;;;;5.13;4.30;;;;;;;;;;5026521;28;20242;-79
2022/04/10 03:03:07;;;;;;;6.67;4.80;;;;;;;;;;5010226;28;20227;-80
2022/04/10 03:05:36;;;;;;;6.53;4.57;;;;;;;;;;5004223;28;20239;-80
2022/04/10 03:08:03;;;;;;;5.80;5.17;;;;;;;;;;5004318;28;20214;-79
2022/04/10 03:10:30;;;;;;;6.93;5.33;;;;;;;;;;5000819;28;20236;-79
2022/04/10 03:12:57;;;;;;;8.93;5.20;;;;;;;;;;5001413;28;20208;-79
2022/04/10 03:15:24;;;;;;;5.33;4.83;;;;;;;;;;5000974;28;20238;-79
2022/04/10 03:17:51;;;;;;;6.63;5.23;;;;;;;;;;5000709;28;20219;-79
2022/04/10 03:20:18;;;;;;;6.97;5.40;;;;;;;;;;4999767;28;20289;-79
2022/04/10 03:22:46;;;;;;;6.43;5.30;;;;;;;;;;5000178;28;20670;-79
2022/04/10 03:25:13;;;;;;;7.93;5.73;;;;;;;;;;4999105;28;20247;-79
2022/04/10 03:27:40;;;;;;;6.80;5.17;;;;;;;;;;4999384;28;20215;-79
2022/04/10 03:30:08;;;;;;;5.70;5.10;;;;;;;;;;4999132;28;20250;-79
2022/04/10 03:32:35;;;;;;;5.93;4.93;;;;;;;;;;4999320;28;20206;-80
2022/04/10 03:35:02;;;;;;;6.80;5.40;;;;;;;;;;4999234;28;20239;-80
2022/04/10 03:37:29;;;;;;;7.13;5.40;;;;;;;;;;4999335;28;20223;-80
2022/04/10 03:39:58;;;;;;;6.23;5.40;;;;;;;;;;4999250;28;20690;-79
2022/04/10 03:42:25;;;;;;;7.23;5.43;;;;;;;;;;4999878;28;20222;-79
2022/04/10 03:44:52;;;;;;;8.10;5.33;;;;;;;;;;4998742;28;20231;-79
2022/04/10 03:47:19;;;;;;;6.30;5.17;;;;;;;;;;4999869;28;20210;-79
2022/04/10 03:49:46;;;;;;;5.83;5.23;;;;;;;;;;4998708;28;20215;-80
2022/04/10 03:52:13;;;;;;;7.17;4.97;;;;;;;;;;5000198;28;20218;-79
2022/04/10 03:54:40;;;;;;;6.30;5.47;;;;;;;;;;4999369;28;20667;-80
2022/04/10 03:57:08;;;;;;;6.03;5.33;;;;;;;;;;5006123;28;20207;-79
2022/04/10 03:59:35;;;;;;;6.27;5.67;;;;;;;;;;5006617;28;20220;-79
2022/04/10 04:02:02;;;;;;;7.80;6.10;;;;;;;;;;5006317;28;20234;-79
2022/04/10 04:04:29;;;;;;;7.23;5.97;;;;;;;;;;5018658;28;20245;-79
2022/04/10 04:06:56;;;;;;;6.73;5.80;;;;;;;;;;5017912;28;20620;-79
2022/04/10 04:09:23;;;;;;;7.33;5.60;;;;;;;;;;5018186;28;20214;-79
2022/04/10 04:11:50;;;;;;;7.87;5.80;;;;;;;;;;5017885;28;20242;-79
2022/04/10 04:14:20;;;;;;;5.63;5.13;;;;;;;;;;5018614;28;20230;-79
2022/04/10 04:16:47;;;;;;;7.70;5.37;;;;;;;;;;5017803;28;20242;-79
2022/04/10 04:19:14;;;;;;;6.37;5.77;;;;;;;;;;5018138;28;20679;-80
2022/04/10 04:21:41;;;;;;;7.33;5.43;;;;;;;;;;5021094;28;20241;-79
2022/04/10 04:24:08;;;;;;;8.03;6.40;;;;;;;;;;5017374;28;20274;-79
2022/04/10 04:26:35;;;;;;;5.90;4.97;;;;;;;;;;5017474;28;20250;-79
2022/04/10 04:29:02;;;;;;;6.13;5.50;;;;;;;;;;5018295;28;20215;-80
2022/04/10 04:31:31;;;;;;;6.10;5.60;;;;;;;;;;5018158;28;20235;-79
2022/04/10 04:33:58;;;;;;;9.80;5.70;;;;;;;;;;5017530;28;20230;-79
2022/04/10 04:36:25;;;;;;;11.83;5.77;;;;;;;;;;5017188;28;20239;-80
2022/04/10 04:38:52;;;;;;;6.50;5.43;;;;;;;;;;5017892;28;20210;-79
2022/04/10 04:41:20;;;;;;;8.83;5.97;;;;;;;;;;5017338;28;20277;-79
2022/04/10 04:43:47;;;;;;;9.53;5.97;;;;;;;;;;5017120;28;20230;-79
2022/04/10 04:46:14;;;;;;;8.23;5.67;;;;;;;;;;5017108;28;20246;-80
2022/04/10 04:48:42;;;;;;;6.13;5.53;;;;;;;;;;5017393;28;20679;-80
2022/04/10 04:51:09;;;;;;;8.17;5.10;;;;;;;;;;5017142;28;20242;-80
2022/04/10 04:53:36;;;;;;;5.57;5.07;;;;;;;;;;5017996;28;20242;-79
2022/04/10 04:56:03;;;;;;;5.80;5.30;;;;;;;;;;5018805;28;20235;-79
2022/04/10 04:58:31;;;;;;;6.70;5.50;;;;;;;;;;5030272;28;20224;-80
2022/04/10 05:00:58;;;;;;;13.03;6.00;;;;;;;;;;5030804;28;20234;-79
2022/04/10 05:03:25;;;;;;;9.47;6.07;;;;;;;;;;5011258;28;20246;-79
2022/04/10 05:05:53;;;;;;;14.43;5.73;;;;;;;;;;4997956;28;20236;-79
2022/04/10 05:08:20;;;;;;;6.03;5.47;;;;;;;;;;4997977;28;20207;-80
2022/04/10 05:10:47;;;;;;;5.90;5.30;;;;;;;;;;4998556;28;20242;-80
2022/04/10 05:13:14;;;;;;;8.23;5.70;;;;;;;;;;4998736;28;20230;-80
2022/04/10 05:15:41;;;;;;;10.63;5.90;;;;;;;;;;4999298;28;20234;-79
2022/04/10 05:18:08;;;;;;;5.50;5.03;;;;;;;;;;4999572;28;20221;-80
2022/04/10 05:20:37;;;;;;;9.17;6.73;;;;;;;;;;4999191;28;20239;-79
2022/04/10 05:23:05;;;;;;;10.20;6.40;;;;;;;;;;4995740;28;20584;-77
2022/04/10 05:25:32;;;;;;;8.73;6.37;;;;;;;;;;4992174;28;20808;-78
2022/04/10 05:27:59;;;;;;;7.97;6.63;;;;;;;;;;4993119;28;20220;-77
2022/04/10 05:30:26;;;;;;;7.13;6.20;;;;;;;;;;4992124;28;20242;-77
2022/04/10 05:32:53;;;;;;;9.40;6.47;;;;;;;;;;4992748;28;20298;-77
2022/04/10 05:35:20;;;;;;;8.97;6.73;;;;;;;;;;4992452;28;20242;-77
2022/04/10 05:37:47;;;;;;;8.70;6.67;;;;;;;;;;4993341;28;20207;-77
2022/04/10 05:40:16;;;;;;;9.30;7.07;;;;;;;;;;4992358;28;20234;-77
2022/04/10 05:42:44;;;;;;;9.87;6.10;;;;;;;;;;4993287;28;20242;-78
2022/04/10 05:45:11;;;;;;;8.17;6.57;;;;;;;;;;4992756;28;20235;-78
2022/04/10 05:47:39;;;;;;;7.67;6.20;;;;;;;;;;4993102;28;20223;-78
2022/04/10 05:50:07;;;;;;;6.60;6.00;;;;;;;;;;5002844;28;20262;-76
2022/04/10 05:52:38;;;;;;;8.53;6.70;;;;;;;;;;5013836;28;20199;-79
2022/04/10 05:55:05;;;;;;;9.30;6.30;;;;;;;;;;5002417;28;20576;-80
2022/04/10 05:57:34;;;;;;;6.50;5.80;;;;;;;;;;4996405;28;20223;-80
2022/04/10 06:00:01;;;;;;;8.13;5.90;;;;;;;;;;4996016;28;20236;-80
2022/04/10 06:02:28;;;;;;;8.40;5.47;;;;;;;;;;5006661;28;20208;-80
2022/04/10 06:04:55;;;;;;;6.90;5.20;;;;;;;;;;5016530;28;20253;-80
2022/04/10 06:07:22;;;;;;;6.40;5.43;;;;;;;;;;5020449;28;20240;-81
2022/04/10 06:09:50;;;;;;;6.57;5.43;;;;;;;;;;5020072;28;20217;-81
2022/04/10 06:12:17;;;;;;;7.10;5.10;;;;;;;;;;5022074;28;20217;-81
2022/04/10 06:14:46;;;;;;;10.37;4.83;;;;;;;;;;5023665;28;20235;-81
2022/04/10 06:17:13;;;;;;;7.23;5.27;;;;;;;;;;5023133;28;20203;-82
2022/04/10 06:19:40;;;;;;;9.80;5.30;;;;;;;;;;5022319;28;20643;-82
2022/04/10 06:22:08;;;;;;;6.17;4.87;;;;;;;;;;5021356;28;20218;-81
2022/04/10 06:24:36;;;;;;;8.53;5.90;;;;;;;;;;5025751;28;20227;-81
2022/04/10 06:27:03;;;;;;;7.27;5.23;;;;;;;;;;5022868;28;20836;-81
2022/04/10 06:29:30;;;;;;;5.33;4.87;;;;;;;;;;5025278;28;20226;-81
2022/04/10 06:31:58;;;;;;;9.10;5.40;;;;;;;;;;5025881;28;20239;-81
2022/04/10 06:34:25;;;;;;;7.00;4.97;;;;;;;;;;5025710;28;20219;-81
2022/04/10 06:36:52;;;;;;;8.73;5.27;;;;;;;;;;5025307;28;20872;-81
2022/04/10 06:39:19;;;;;;;7.17;4.97;;;;;;;;;;5025449;28;20210;-81
2022/04/10 06:41:46;;;;;;;5.80;4.67;;;;;;;;;;5024865;28;20255;-81
2022/04/10 06:44:13;;;;;;;8.77;4.57;;;;;;;;;;5025548;28;20258;-81
2022/04/10 06:46:41;;;;;;;8.33;4.73;;;;;;;;;;5028001;28;20242;-81
2022/04/10 06:49:12;;;;;;;5.20;4.40;;;;;;;;;;5029136;28;20207;-81
2022/04/10 06:51:39;;;;;;;5.40;4.90;;;;;;;;;;5028953;28;20239;-81
2022/04/10 06:54:07;;;;;;;6.73;4.60;;;;;;;;;;5028669;28;20242;-81
2022/04/10 06:56:34;;;;;;;6.93;4.80;;;;;;;;;;5027651;28;20239;-81
2022/04/10 06:59:01;;;;;;;6.83;4.63;;;;;;;;;;5027693;28;20203;-82
2022/04/10 07:01:28;;;;;;;7.20;4.53;;;;;;;;;;5025244;28;20235;-81
2022/04/10 07:03:55;;;;;;;7.13;4.77;;;;;;;;;;5008730;28;20239;-82
2022/04/10 07:06:23;;;;;;;4.97;4.47;;;;;;;;;;5008440;28;20227;-81
2022/04/10 07:08:50;;;;;;;5.13;4.43;;;;;;;;;;5008264;28;20216;-81
2022/04/10 07:11:17;;;;;;;7.63;4.57;;;;;;;;;;5006108;28;20240;-81
2022/04/10 07:13:44;;;;;;;7.13;4.57;;;;;;;;;;5006767;28;20228;-81
2022/04/10 07:16:11;;;;;;;6.43;5.07;;;;;;;;;;5007313;28;20231;-81
2022/04/10 07:18:38;;;;;;;5.50;4.70;;;;;;;;;;5007013;28;20208;-81
2022/04/10 07:21:05;;;;;;;4.53;4.13;;;;;;;;;;5007264;28;20240;-81
2022/04/10 07:23:42;;;;;;;7.70;4.13;;;;;;;;;;5006133;28;20236;-81
2022/04/10 07:26:09;;;;;;;6.43;4.53;;;;;;;;;;5005800;28;20235;-82
2022/04/10 07:28:37;;;;;;;5.23;4.33;;;;;;;;;;5003642;28;20830;-83
2022/04/10 07:31:05;;;;;;;7.50;4.80;;;;;;;;;;5002655;28;20318;-81
2022/04/10 07:33:32;;;;;;;5.30;4.00;;;;;;;;;;5005265;28;20767;-81
2022/04/10 07:35:59;;;;;;;5.50;4.40;;;;;;;;;;5004282;28;20242;-81
2022/04/10 07:38:26;;;;;;;9.50;4.60;;;;;;;;;;5010130;28;20219;-82
2022/04/10 07:40:55;;;;;;;5.83;4.53;;;;;;;;;;4992601;28;20239;-81
2022/04/10 07:43:22;;;;;;;5.87;4.90;;;;;;;;;;4996297;28;20282;-81
2022/04/10 07:48:35;;;;;;;7.57;4.20;;;;;;;;;;4995694;28;20210;-82
2022/04/10 07:51:03;;;;;;;4.90;4.50;;;;;;;;;;4996057;28;20240;-81
2022/04/10 07:53:30;;;;;;;6.13;4.80;;;;;;;;;;4995660;28;20732;-82
2022/04/10 07:55:59;;;;;;;5.07;4.57;;;;;;;;;;4994430;28;20236;-83
2022/04/10 07:58:26;;;;;;;5.00;4.57;;;;;;;;;;4994941;28;20642;-81
2022/04/10 08:00:53;;;;;;;8.57;5.10;;;;;;;;;;4994972;28;20231;-83
2022/04/10 08:03:20;;;;;;;5.97;5.03;;;;;;;;;;5012817;28;20255;-83
2022/04/10 08:05:47;;;;;;;10.70;5.60;;;;;;;;;;5015535;28;20703;-83
2022/04/10 08:08:15;;;;;;;7.40;5.10;;;;;;;;;;5016234;28;20199;-81
2022/04/10 08:10:42;;;;;;;5.43;4.93;;;;;;;;;;5015952;28;20239;-82
2022/04/10 08:13:10;;;;;;;6.90;4.73;;;;;;;;;;5015461;28;20223;-82
2022/04/10 08:15:37;;;;;;;9.73;5.30;;;;;;;;;;5014306;28;20232;-83
2022/04/10 08:18:05;;;;;;;5.93;5.07;;;;;;;;;;5015650;28;20700;-82
2022/04/10 08:20:32;;;;;;;6.37;4.73;;;;;;;;;;5013957;28;20593;-83
2022/04/10 08:23:00;;;;;;;5.40;4.83;;;;;;;;;;5014607;28;20218;-81
2022/04/10 08:25:27;;;;;;;5.73;4.40;;;;;;;;;;5015630;28;20720;-82
2022/04/10 08:27:55;;;;;;;8.47;4.27;;;;;;;;;;5014039;28;20241;-82
2022/04/10 08:30:24;;;;;;;7.17;4.50;;;;;;;;;;5013336;28;20231;-82
2022/04/10 08:32:51;;;;;;;8.00;4.87;;;;;;;;;;5014269;28;20197;-83
2022/04/10 08:35:18;;;;;;;7.83;4.63;;;;;;;;;;5015269;28;20238;-84
2022/04/10 08:37:46;;;;;;;8.00;4.60;;;;;;;;;;5013914;28;20239;-84
2022/04/10 08:40:13;;;;;;;4.50;3.80;;;;;;;;;;5013204;28;20611;-84
2022/04/10 08:42:40;;;;;;;6.00;4.20;;;;;;;;;;5015349;28;20211;-81
2022/04/10 08:45:08;;;;;;;4.83;3.80;;;;;;;;;;5014493;28;20688;-84
2022/04/10 08:47:38;;;;;;;6.57;4.50;;;;;;;;;;5001787;28;20223;-84
2022/04/10 08:50:06;;;;;;;5.33;3.30;;;;;;;;;;4994352;28;20234;-82
2022/04/10 08:52:33;;;;;;;4.73;3.77;;;;;;;;;;4998977;28;20215;-83
2022/04/10 08:55:00;;;;;;;6.10;3.83;;;;;;;;;;4996968;28;20589;-83
2022/04/10 08:57:27;;;;;;;5.50;3.83;;;;;;;;;;4996308;28;20207;-84
2022/04/10 08:59:57;;;;;;;5.50;3.80;;;;;;;;;;4993860;28;20224;-84
2022/04/10 09:02:24;;;;;;;4.50;3.23;;;;;;;;;;4993811;28;20231;-83
2022/04/10 09:04:53;;;;;;;6.63;3.73;;;;;;;;;;4993976;28;20623;-82
2022/04/10 09:07:21;;;;;;;5.67;4.33;;;;;;;;;;4993668;28;20239;-81
2022/04/10 09:09:59;;;;;;;7.07;3.13;;;;;;;;;;4995805;28;20243;-82
2022/04/10 09:12:27;;;;;;;4.83;3.50;;;;;;;;;;4994206;28;20243;-80
2022/04/10 09:15:02;;;;;;;4.80;3.53;;;;;;;;;;4994509;28;20698;-81
2022/04/10 09:17:30;;;;;;;3.87;2.30;;;;;;;;;;5040056;28;20203;-82
2022/04/10 09:20:00;;;;;;;4.80;2.90;;;;;;;;;;5044932;28;20203;-82
2022/04/10 09:22:28;;;;;;;6.47;2.90;;;;;;;;;;5034827;28;20207;-81
2022/04/10 09:25:07;;;;;;;4.00;3.30;;;;;;;;;;5014715;28;20235;-82
2022/04/10 09:27:34;;;;;;;4.03;3.10;;;;;;;;;;5013061;28;20223;-82
2022/04/10 09:30:01;;;;;;;3.77;3.40;;;;;;;;;;5012442;28;20227;-82
2022/04/10 09:32:44;;;;;;;3.97;3.50;;;;;;;;;;5013271;28;20221;-82
2022/04/10 09:35:14;;;;;;;6.10;3.90;;;;;;;;;;5000354;28;20592;-82
2022/04/10 09:37:48;;;;;;;7.40;3.27;;;;;;;;;;4992403;28;20204;-82
2022/04/10 09:40:29;;;;;;;3.40;3.10;;;;;;;;;;4992099;28;20232;-82
2022/04/10 09:43:00;;;;;;;6.27;3.17;;;;;;;;;;4992799;28;20208;-83
2022/04/10 09:45:27;;;;;;;8.03;3.37;;;;;;;;;;4992519;28;20269;-82
2022/04/10 09:47:54;;;;;;;4.57;3.50;;;;;;;;;;4992712;28;20273;-83
2022/04/10 09:50:31;;;;;;;4.77;2.47;;;;;;;;;;4992384;28;20245;-81
2022/04/10 09:52:58;;;;;;;4.37;3.80;;;;;;;;;;4992897;28;20734;-82
2022/04/10 09:55:38;;;;;;;5.43;3.50;;;;;;;;;;4992987;28;20266;-81
2022/04/10 09:58:07;;;;;;;8.40;3.50;;;;;;;;;;4993196;28;20212;-83
2022/04/10 10:00:36;;;;;;;5.63;3.50;;;;;;;;;;4992534;28;20266;-82
2022/04/10 10:03:04;;;;;;;8.07;3.53;;;;;;;;;;4993455;28;20690;-82
2022/04/10 10:05:33;;;;;;;3.93;3.33;;;;;;;;;;4993193;28;20276;-81
2022/04/10 10:08:00;;;;;;;4.20;3.00;;;;;;;;;;5008469;28;20238;-81
2022/04/10 10:10:30;;;;;;;3.70;2.90;;;;;;;;;;5018845;28;20234;-82
2022/04/10 10:12:57;;;;;;;3.87;2.90;;;;;;;;;;5012409;28;20206;-82
2022/04/10 10:15:24;;;;;;;5.80;3.40;;;;;;;;;;5019357;28;20227;-82
2022/04/10 10:17:52;;;;;;;3.73;3.37;;;;;;;;;;5008963;28;20203;-82
2022/04/10 10:20:21;;;;;;;3.80;3.27;;;;;;;;;;5019740;28;20227;-82
2022/04/10 10:22:49;;;;;;;5.57;2.97;;;;;;;;;;5026154;28;20218;-82
2022/04/10 10:25:18;;;;;;;3.10;2.80;;;;;;;;;;5016488;28;20235;-82
2022/04/10 10:27:53;;;;;;;4.60;3.20;;;;;;;;;;5016303;28;20238;-82
2022/04/10 10:30:23;;;;;;;4.83;3.10;;;;;;;;;;4995167;28;20231;-82
2022/04/10 10:32:52;;;;;;;4.97;3.10;;;;;;;;;;4996270;28;20204;-82
2022/04/10 10:35:30;;;;;;;4.70;2.87;;;;;;;;;;5001334;28;20239;-82
2022/04/10 10:38:00;;;;;;;4.07;2.83;;;;;;;;;;5014267;28;20210;-82
2022/04/10 10:40:27;;;;;;;4.00;3.13;;;;;;;;;;5020789;28;20317;-82
2022/04/10 10:42:59;;;;;;;6.40;3.07;;;;;;;;;;5015563;28;20207;-83
2022/04/10 10:45:37;;;;;;;4.00;2.83;;;;;;;;;;5002208;28;20242;-83
2022/04/10 10:48:18;;;;;;;5.10;3.23;;;;;;;;;;5023393;28;20223;-83
2022/04/10 10:50:46;;;;;;;3.80;2.43;;;;;;;;;;5014073;28;20231;-82
2022/04/10 10:53:14;;;;;;;4.50;2.93;;;;;;;;;;5012860;28;20238;-82
2022/04/10 10:55:45;;;;;;;4.23;2.80;;;;;;;;;;5034884;28;20265;-82
2022/04/10 10:58:15;;;;;;;4.43;2.97;;;;;;;;;;5023590;28;20199;-83
2022/04/10 11:00:45;;;;;;;4.20;2.70;;;;;;;;;;5014941;28;20235;-83
2022/04/10 11:03:14;;;;;;;3.70;3.33;;;;;;;;;;5015744;28;20236;-83
2022/04/10 11:05:41;;;;;;;3.30;2.73;;;;;;;;;;5028445;28;20233;-83
2022/04/10 11:08:10;;;;;;;3.77;2.53;;;;;;;;;;5025613;28;20285;-83
2022/04/10 11:10:39;;;;;;;6.17;3.50;;;;;;;;;;5018465;28;20254;-83
2022/04/10 11:13:06;;;;;;;5.17;2.77;;;;;;;;;;5016119;28;20231;-82
2022/04/10 11:15:35;;;;;;;5.37;2.93;;;;;;;;;;5018713;28;20239;-83
2022/04/10 11:18:20;;;;;;;4.53;2.33;;;;;;;;;;5025788;28;20192;-82
2022/04/10 11:20:54;;;;;;;3.90;2.53;;;;;;;;;;5034631;28;20238;-82
2022/04/10 11:23:21;;;;;;;4.47;2.77;;;;;;;;;;5034539;28;20222;-82
2022/04/10 11:25:54;;;;;;;6.10;2.87;;;;;;;;;;5033349;28;20234;-82
2022/04/10 11:28:25;;;;;;;4.07;3.60;;;;;;;;;;5013699;28;20702;-82
2022/04/10 11:30:53;;;;;;;6.60;3.03;;;;;;;;;;5013058;28;20263;-82
2022/04/10 11:33:21;;;;;;;4.53;2.60;;;;;;;;;;5015593;28;20231;-82
2022/04/10 11:35:57;;;;;;;6.47;2.73;;;;;;;;;;4997651;28;20239;-81
2022/04/10 11:38:24;;;;;;;3.53;2.70;;;;;;;;;;4994306;28;20215;-83
2022/04/10 11:40:54;;;;;;;2.77;2.53;;;;;;;;;;4993921;28;20247;-82
2022/04/10 11:43:23;;;;;;;4.03;2.90;;;;;;;;;;4994183;28;20600;-82
2022/04/10 11:45:53;;;;;;;6.13;3.10;;;;;;;;;;4994918;28;20231;-82
2022/04/10 11:48:22;;;;;;;4.27;3.33;;;;;;;;;;4994476;28;20242;-82
2022/04/10 11:50:49;;;;;;;6.53;3.33;;;;;;;;;;4994436;28;20243;-83
2022/04/10 11:53:17;;;;;;;4.83;3.40;;;;;;;;;;4994290;28;20247;-82
2022/04/10 11:55:45;;;;;;;4.13;2.60;;;;;;;;;;4994374;28;20734;-83
2022/04/10 11:58:16;;;;;;;3.80;2.90;;;;;;;;;;4995269;28;20208;-82
2022/04/10 12:00:47;;;;;;;5.97;3.07;;;;;;;;;;4994096;28;20239;-81
2022/04/10 12:03:14;;;;;;;4.93;3.40;;;;;;;;;;4994419;28;20226;-82
2022/04/10 12:05:41;;;;;;;4.83;3.20;;;;;;;;;;4994101;28;20236;-81
2022/04/10 12:08:08;;;;;;;4.37;2.90;;;;;;;;;;4994198;28;20233;-82
2022/04/10 12:10:35;;;;;;;3.20;2.87;;;;;;;;;;4993753;28;20242;-82
2022/04/10 12:13:03;;;;;;;5.70;3.43;;;;;;;;;;4994136;28;20212;-82
2022/04/10 12:15:33;;;;;;;4.53;3.03;;;;;;;;;;4994181;28;20231;-82
2022/04/10 12:18:05;;;;;;;4.97;3.63;;;;;;;;;;4994325;28;20208;-81
2022/04/10 12:20:32;;;;;;;4.17;3.40;;;;;;;;;;5001195;28;20583;-84
2022/04/10 12:23:00;;;;;;;4.10;3.00;;;;;;;;;;5021951;28;20207;-83
2022/04/10 12:25:27;;;;;;;4.97;3.33;;;;;;;;;;5033049;28;20226;-83
2022/04/10 12:27:54;;;;;;;3.07;2.80;;;;;;;;;;5032978;28;20229;-84
2022/04/10 12:30:22;;;;;;;4.30;3.17;;;;;;;;;;5031833;28;20238;-83
2022/04/10 12:32:50;;;;;;;4.00;3.50;;;;;;;;;;5040771;28;20229;-83
2022/04/10 12:35:17;;;;;;;3.87;3.00;;;;;;;;;;5033950;28;20246;-83
2022/04/10 12:37:48;;;;;;;5.30;3.53;;;;;;;;;;5033906;28;20207;-83
2022/04/10 12:40:15;;;;;;;3.90;3.10;;;;;;;;;;5032734;28;20686;-82
2022/04/10 12:42:42;;;;;;;5.60;3.00;;;;;;;;;;5032601;28;20217;-83
2022/04/10 12:45:11;;;;;;;5.57;3.27;;;;;;;;;;5032191;28;20585;-83
2022/04/10 12:47:45;;;;;;;4.50;2.97;;;;;;;;;;5032335;28;20230;-83
2022/04/10 12:50:16;;;;;;;4.30;3.30;;;;;;;;;;5031320;28;20226;-83
2022/04/10 12:52:44;;;;;;;3.30;3.00;;;;;;;;;;5032707;28;20265;-83
2022/04/10 12:55:21;;;;;;;3.60;3.30;;;;;;;;;;5032158;28;20719;-83
2022/04/10 12:57:55;;;;;;;6.53;3.53;;;;;;;;;;5032868;28;20234;-82
2022/04/10 13:00:26;;;;;;;4.40;3.57;;;;;;;;;;5031366;28;20599;-82
2022/04/10 13:02:53;;;;;;;4.33;3.27;;;;;;;;;;5032227;28;20593;-82
2022/04/10 13:05:21;;;;;;;3.50;3.10;;;;;;;;;;5032064;28;20226;-82
2022/04/10 13:07:59;;;;;;;3.43;3.10;;;;;;;;;;5027118;28;20228;-82
2022/04/10 13:10:27;;;;;;;3.23;2.93;;;;;;;;;;4991748;28;20235;-83
2022/04/10 13:13:07;;;;;;;3.83;2.47;;;;;;;;;;5011876;28;20219;-83
2022/04/10 13:15:35;;;;;;;3.40;2.50;;;;;;;;;;5004918;28;20230;-82
2022/04/10 13:18:04;;;;;;;3.90;2.70;;;;;;;;;;5001633;28;20223;-83
2022/04/10 13:20:33;;;;;;;6.03;3.10;;;;;;;;;;5010790;28;20234;-81
2022/04/10 13:23:00;;;;;;;3.77;2.93;;;;;;;;;;5019921;28;20208;-82
2022/04/10 13:25:31;;;;;;;5.77;3.47;;;;;;;;;;5009474;28;20227;-82
2022/04/10 13:27:59;;;;;;;5.63;3.30;;;;;;;;;;5000611;28;20225;-81
2022/04/10 13:30:26;;;;;;;3.23;2.93;;;;;;;;;;5020263;28;20228;-80
2022/04/10 13:32:53;;;;;;;4.03;3.47;;;;;;;;;;5019998;28;20266;-79
2022/04/10 13:35:20;;;;;;;3.30;2.70;;;;;;;;;;5032739;28;20223;-82
2022/04/10 13:37:49;;;;;;;5.57;2.30;;;;;;;;;;5013178;28;20199;-83
2022/04/10 13:40:16;;;;;;;2.90;2.60;;;;;;;;;;5015737;28;20281;-81
2022/04/10 13:42:44;;;;;;;2.10;2.00;;;;;;;;;;5012379;28;20719;-82
2022/04/10 13:45:12;;;;;;;3.00;2.50;;;;;;;;;;5011442;28;20580;-83
2022/04/10 13:47:39;;;;;;;4.23;2.40;;;;;;;;;;5012138;28;20241;-82
2022/04/10 13:50:07;;;;;;;5.47;3.70;;;;;;;;;;5011418;28;20231;-82
2022/04/10 13:52:34;;;;;;;3.10;2.80;;;;;;;;;;5011822;28;20277;-82
2022/04/10 13:55:03;;;;;;;5.50;3.83;;;;;;;;;;5011137;28;20282;-83
2022/04/10 13:57:30;;;;;;;4.00;3.60;;;;;;;;;;5011565;28;20226;-81
2022/04/10 13:59:57;;;;;;;6.33;3.90;;;;;;;;;;5011623;28;20735;-81
2022/04/10 14:02:25;;;;;;;3.40;2.87;;;;;;;;;;5001533;28;20216;-82
2022/04/10 14:04:52;;;;;;;8.30;5.10;;;;;;;;;;4991843;28;20259;-83
2022/04/10 14:07:19;;;;;;;5.10;3.50;;;;;;;;;;4992438;28;20259;-83
2022/04/10 14:09:46;;;;;;;6.37;3.40;;;;;;;;;;4991288;28;20228;-82
2022/04/10 14:12:15;;;;;;;4.83;3.60;;;;;;;;;;4992769;28;20203;-83
2022/04/10 14:14:42;;;;;;;3.57;2.87;;;;;;;;;;4991884;28;20227;-82
2022/04/10 14:17:09;;;;;;;2.57;2.37;;;;;;;;;;4993055;28;20601;-82
2022/04/10 14:19:36;;;;;;;3.30;2.47;;;;;;;;;;4991694;28;20212;-83
2022/04/10 14:22:03;;;;;;;4.50;2.40;;;;;;;;;;4994852;28;20227;-82
2022/04/10 14:24:32;;;;;;;3.73;2.50;;;;;;;;;;5009417;28;20234;-83
2022/04/10 14:26:59;;;;;;;3.90;3.07;;;;;;;;;;5011048;28;20239;-80
2022/04/10 14:29:28;;;;;;;4.00;3.00;;;;;;;;;;4999548;28;20234;-83
2022/04/10 14:31:55;;;;;;;5.33;3.50;;;;;;;;;;5001583;28;20309;-82
2022/04/10 14:34:22;;;;;;;6.80;3.40;;;;;;;;;;5001422;28;20223;-83
2022/04/10 14:36:49;;;;;;;5.50;3.30;;;;;;;;;;5009902;28;20282;-83
2022/04/10 14:39:16;;;;;;;5.70;3.53;;;;;;;;;;5021318;28;20656;-83
2022/04/10 14:41:45;;;;;;;4.43;3.17;;;;;;;;;;5011078;28;20619;-82
2022/04/10 14:44:13;;;;;;;3.60;3.10;;;;;;;;;;5017582;28;20250;-82
2022/04/10 14:46:41;;;;;;;3.27;2.90;;;;;;;;;;5005793;28;20595;-82
2022/04/10 14:49:09;;;;;;;4.93;2.60;;;;;;;;;;5010618;28;20588;-83
2022/04/10 14:51:36;;;;;;;5.23;2.73;;;;;;;;;;5004335;28;20246;-83